Latest Weather Observations for Hobart

IDT60901

Issued at 10:01 am EDT Sunday 28 November 2021 (issued every 10 minutes, with the page automatically refreshed every 10 minutes)

About weather observations | Map of Hobart area stations | Latest observations for Hobart area | Other Formats
Station Details ID: 094029 Name: HOBART (ELLERSLIE ROAD) Lat: -42.89 Lon: 147.33 Height: 50.5 m
Data from the previous 72 hours. | See also: Recent months at Hobart
Date/Time
EDT
Temp
°C
App
Temp
°C
Dew
Point
°C
Rel
Hum
%
Delta-T
°C
Wind Press
QNH
hPa
Press
MSL
hPa
Rain since
9am
mm
Dir  Spd
km/h
Gust
km/h
Spd
kts
Gust
kts
28/10:00am 17.8 13.9 7.0 49 5.4 NNW 17 28 9 15 1025.4 1025.4 0.0
28/09:30am 16.7 12.3 6.5 51 5.0 NNW 19 30 10 16 1025.5 1025.5 0.0
28/09:00am 15.3 11.2 6.3 55 4.3 NNW 17 26 9 14 1025.9 1025.9 0.0
28/08:30am 14.3 10.2 6.4 59 3.8 N 17 22 9 12 1026.1 1026.1 0.0
28/08:00am 13.0 9.4 6.8 66 3.0 NNW 15 20 8 11 1026.2 1026.2 0.0
28/07:30am 11.7 7.2 6.2 69 2.6 NNW 19 24 10 13 1026.3 1026.3 0.0
28/07:00am 10.9 7.5 5.7 70 2.4 NW 13 20 7 11 1026.1 1026.1 0.0
28/06:30am 10.1 7.1 5.9 75 1.9 NW 11 15 6 8 1026.0 1026.0 0.0
28/06:00am 8.8 5.7 5.5 80 1.5 NW 11 17 6 9 1025.8 1025.8 0.0
28/05:30am 8.4 5.6 5.2 80 1.4 WNW 9 17 5 9 1025.5 1025.5 0.0
28/05:00am 8.1 5.3 5.0 81 1.4 NW 9 15 5 8 1025.5 1025.5 0.0
28/04:30am 8.6 6.4 5.4 80 1.4 NW 6 9 3 5 1025.6 1025.6 0.0
28/04:00am 8.7 6.0 5.8 82 1.3 NW 9 13 5 7 1025.4 1025.4 0.0
28/03:30am 8.6 6.2 5.4 80 1.4 WNW 7 9 4 5 1025.6 1025.6 0.0
28/03:00am 9.1 7.0 5.8 80 1.5 WNW 6 7 3 4 1025.9 1025.9 0.0
28/02:30am 9.2 6.5 5.4 77 1.7 W 9 11 5 6 1026.4 1026.4 0.0
28/02:00am 9.7 6.6 5.5 75 1.9 WSW 11 15 6 8 1026.5 1026.5 0.0
28/01:30am 9.9 6.8 5.7 75 1.9 WSW 11 17 6 9 1026.7 1026.7 0.0
28/01:00am 10.0 7.3 5.8 75 1.9 WSW 9 11 5 6 1027.0 1027.0 0.0
28/12:30am 10.2 7.2 5.8 74 2.0 WSW 11 13 6 7 1027.2 1027.2 0.0
28/12:00am 10.4 7.7 5.8 73 2.1 WSW 9 13 5 7 1027.5 1027.5 0.0
 
Date/Time
EDT
Temp
°C
App
Temp
°C
Dew
Point
°C
Rel
Hum
%
Delta-T
°C
Wind Press
QNH
hPa
Press
MSL
hPa
Rain since
9am
mm
Dir  Spd
km/h
Gust
km/h
Spd
kts
Gust
kts
27/11:30pm 11.0 8.4 6.0 71 2.3 WSW 9 13 5 7 1027.6 1027.6 0.0
27/11:00pm 11.5 8.1 6.0 69 2.6 WSW 13 15 7 8 1027.8 1027.8 0.0
27/10:30pm 11.7 9.0 5.8 67 2.8 WSW 9 11 5 6 1027.6 1027.6 0.0
27/10:00pm 12.5 10.2 5.9 64 3.1 SW 7 9 4 5 1027.5 1027.5 0.0
27/09:30pm 13.2 11.1 5.9 61 3.5 SSE 6 9 3 5 1027.5 1027.5 0.0
27/09:00pm 13.6 10.5 5.7 59 3.7 SSW 11 19 6 10 1027.2 1027.2 0.0
27/08:30pm 14.2 10.4 5.8 57 4.0 SSE 15 20 8 11 1027.0 1027.0 0.0
27/08:00pm 14.6 10.4 5.9 56 4.1 S 17 20 9 11 1026.9 1026.9 0.0
27/07:30pm 15.4 10.6 4.5 48 5.1 SE 19 26 10 14 1026.7 1026.7 0.0
27/07:00pm 16.0 11.3 5.0 48 5.2 SE 19 26 10 14 1026.3 1026.3 0.0
27/06:30pm 16.2 11.0 5.5 49 5.1 SE 22 28 12 15 1026.1 1026.1 0.0
27/06:00pm 17.0 11.5 5.9 48 5.4 SE 24 32 13 17 1025.8 1025.8 0.0
27/05:30pm 17.7 13.2 6.3 47 5.6 ESE 19 28 10 15 1025.6 1025.6 0.0
27/05:00pm 17.7 12.8 5.3 44 6.0 ESE 20 26 11 14 1025.8 1025.8 0.0
27/04:30pm 17.7 13.0 5.9 46 5.8 ESE 20 30 11 16 1026.0 1026.0 0.0
27/04:00pm 17.9 13.5 7.3 50 5.3 ESE 20 30 11 16 1026.2 1026.2 0.0
27/03:30pm 18.0 13.0 6.5 47 5.7 ESE 22 30 12 16 1026.3 1026.3 0.0
27/03:00pm 17.8 13.2 6.7 48 5.5 ESE 20 28 11 15 1026.5 1026.5 0.0
27/02:30pm 17.8 13.2 6.7 48 5.5 ESE 20 26 11 14 1026.6 1026.6 0.0
27/02:00pm 17.7 13.2 6.3 47 5.6 SE 19 24 10 13 1026.8 1026.8 0.0
27/01:30pm 17.3 12.8 4.3 42 6.1 E 17 24 9 13 1027.0 1027.0 0.0
27/01:00pm 18.1 14.5 2.8 36 7.0 NE 11 19 6 10 1027.3 1027.3 0.0
27/12:30pm 18.1 14.2 3.2 37 6.9 NE 13 20 7 11 1027.6 1027.6 0.0
27/12:00pm 18.0 15.0 4.2 40 6.5 N 9 17 5 9 1027.9 1027.9 0.0
27/11:30am 17.1 13.3 4.1 42 6.1 NNE 13 24 7 13 1028.2 1028.2 0.0
27/11:00am 17.1 13.5 5.1 45 5.7 N 13 22 7 12 1028.5 1028.5 0.0
27/10:30am 15.6 10.8 2.4 41 5.9 N 17 26 9 14 1028.6 1028.6 0.0
27/10:00am 14.8 10.1 3.0 45 5.3 N 17 26 9 14 1028.8 1028.8 0.0
27/09:30am 14.2 9.0 3.4 48 4.9 NNW 20 24 11 13 1029.0 1029.0 0.0
27/09:00am 13.0 8.5 4.2 55 4.0 NNW 17 24 9 13 1029.0 1029.0 0.0
27/08:30am 11.7 7.4 5.3 65 3.0 NNW 17 22 9 12 1029.0 1029.0 0.0
27/08:00am 10.0 5.1 5.0 71 2.2 NNW 20 24 11 13 1029.0 1029.0 0.0
27/07:30am 8.9 3.9 4.5 74 1.9 NNW 20 26 11 14 1028.7 1028.7 0.0
27/07:00am 8.8 4.3 4.4 74 1.9 NNW 17 24 9 13 1028.5 1028.5 0.0
27/06:30am 8.1 4.4 4.5 78 1.6 NNW 13 19 7 10 1028.3 1028.3 0.0
27/06:00am 7.0 4.0 4.0 81 1.3 NNW 9 13 5 7 1028.1 1028.1 0.0
27/05:30am 6.5 3.4 3.8 83 1.1 NW 9 13 5 7 1028.0 1028.0 0.0
27/05:00am 6.5 3.5 4.2 85 1.0 NNW 9 13 5 7 1027.7 1027.7 0.0
27/04:30am 6.7 3.7 4.0 83 1.2 NNW 9 11 5 6 1027.6 1027.6 0.0
27/04:00am 6.9 4.0 4.4 84 1.1 NNW 9 13 5 7 1027.5 1027.5 0.0
27/03:30am 7.0 4.0 4.3 83 1.2 NNW 9 13 5 7 1027.5 1027.5 0.0
27/03:00am 7.5 5.1 4.5 81 1.3 NNW 6 7 3 4 1027.5 1027.5 0.0
27/02:30am 7.7 5.8 4.7 81 1.3 NW 4 9 2 5 1027.5 1027.5 0.0
27/02:00am 7.8 4.5 4.4 79 1.5 WSW 11 17 6 9 1027.5 1027.5 0.0
27/01:30am 7.8 5.4 4.4 79 1.5 WNW 6 9 3 5 1027.5 1027.5 0.0
27/01:00am 8.3 4.6 4.3 76 1.7 W 13 15 7 8 1027.6 1027.6 0.0
27/12:30am 8.8 5.1 4.4 74 1.9 WSW 13 17 7 9 1027.8 1027.8 0.0
27/12:00am 8.7 5.4 4.3 74 1.9 WSW 11 15 6 8 1028.0 1028.0 0.0
 
Date/Time
EDT
Temp
°C
App
Temp
°C
Dew
Point
°C
Rel
Hum
%
Delta-T
°C
Wind Press
QNH
hPa
Press
MSL
hPa
Rain since
9am
mm
Dir  Spd
km/h
Gust
km/h
Spd
kts
Gust
kts
26/11:30pm 9.3 5.2 4.3 71 2.2 WSW 15 19 8 10 1028.0 1028.0 0.0
26/11:00pm 9.1 5.3 4.1 71 2.2 WSW 13 17 7 9 1028.0 1028.0 0.0
26/10:30pm 9.4 4.9 4.2 70 2.3 WSW 17 20 9 11 1028.0 1028.0 0.0
26/10:00pm 9.6 5.9 4.2 69 2.4 SW 13 17 7 9 1028.0 1028.0 0.0
26/09:30pm 9.8 5.7 4.2 68 2.5 SW 15 17 8 9 1027.6 1027.6 0.0
26/09:00pm 10.4 7.0 3.9 64 2.9 SSW 11 15 6 8 1027.2 1027.2 0.0
26/08:30pm 11.2 6.9 3.5 59 3.4 S 15 22 8 12 1027.0 1027.0 0.0
26/08:00pm 11.7 6.6 3.2 56 3.7 SSE 19 24 10 13 1027.0 1027.0 0.0
26/07:30pm 12.0 6.9 3.3 55 3.9 SSE 19 26 10 14 1026.6 1026.6 0.0
26/07:00pm 12.1 7.9 3.9 57 3.7 SSE 15 22 8 12 1026.2 1026.2 0.0
26/06:30pm 12.5 7.6 5.2 61 3.4 SE 20 30 11 16 1025.9 1025.9 0.0
26/06:00pm 12.4 7.5 4.9 60 3.4 SE 20 33 11 18 1025.7 1025.7 0.0
26/05:30pm 12.9 7.5 4.6 57 3.8 SE 22 33 12 18 1025.4 1025.4 0.0
26/05:00pm 13.0 6.4 4.4 56 3.9 SSE 28 37 15 20 1025.1 1025.1 0.0
26/04:30pm 13.6 6.9 3.9 52 4.4 SSE 28 43 15 23 1024.7 1024.7 0.0
26/04:00pm 13.4 6.7 3.8 52 4.3 SSE 28 41 15 22 1024.6 1024.6 0.0
26/03:30pm 13.2 6.1 3.3 51 4.4 SE 30 43 16 23 1024.5 1024.5 0.0
26/03:00pm 13.9 7.4 4.5 53 4.3 SE 28 41 15 22 1024.4 1024.4 0.0
26/02:30pm 13.7 6.7 4.3 53 4.3 SE 30 37 16 20 1024.3 1024.3 0.0
26/02:00pm 13.3 6.6 3.7 52 4.3 SE 28 37 15 20 1024.4 1024.4 0.0
26/01:30pm 13.9 8.1 4.5 53 4.3 SSE 24 39 13 21 1024.4 1024.4 0.0
26/01:00pm 13.6 7.8 4.5 54 4.2 SE 24 32 13 17 1024.5 1024.5 0.0
26/12:30pm 14.1 7.5 4.4 52 4.5 SE 28 35 15 19 1024.5 1024.5 0.0
26/12:03pm 13.2 6.0 3.0 50 4.5 SE 30 48 16 26 1024.5 1024.5 0.0
26/12:00pm 13.0 6.6 3.4 52 4.3 SE 26 39 14 21 1024.5 1024.5 0.0
26/11:30am 13.2 5.3 4.6 56 4.0 SE 35 48 19 26 1024.4 1024.4 0.0
26/11:00am 13.3 6.6 3.7 52 4.3 SE 28 35 15 19 1024.3 1024.3 0.0
26/10:30am 13.2 5.8 4.1 54 4.1 SE 32 44 17 24 1024.3 1024.3 0.0
26/10:00am 12.0 6.5 1.9 50 4.3 SSE 20 33 11 18 1024.4 1024.4 0.0
26/09:30am 11.7 6.3 2.7 54 3.9 S 20 28 11 15 1024.3 1024.3 0.0
26/09:00am 12.8 7.6 2.6 50 4.5 S 19 30 10 16 1024.1 1024.1 0.0
26/08:30am 12.1 7.9 3.6 56 3.8 SSW 15 24 8 13 1024.0 1024.0 0.0
26/08:00am 11.0 5.8 3.3 59 3.4 SW 20 28 11 15 1023.7 1023.7 0.0
26/07:30am 10.5 4.4 2.8 59 3.3 SW 24 33 13 18 1023.3 1023.3 0.0
26/07:00am 10.7 6.2 2.3 56 3.6 SSW 15 22 8 12 1022.9 1022.9 0.0
26/06:30am 10.0 5.4 3.5 64 2.8 SW 17 20 9 11 1022.3 1022.3 0.0
26/06:00am 8.0 2.8 2.7 69 2.2 SSW 19 26 10 14 1022.0 1022.0 0.0
26/05:30am 7.6 2.2 2.5 70 2.1 SSW 20 26 11 14 1021.6 1021.6 0.0
26/05:00am 7.1 1.7 2.6 73 1.9 SSW 20 24 11 13 1021.2 1021.2 0.0
26/04:30am 7.2 2.4 2.5 72 2.0 SSW 17 20 9 11 1021.0 1021.0 0.0
26/04:00am 7.4 2.6 2.5 71 2.0 SSW 17 20 9 11 1020.7 1020.7 0.0
26/03:30am 7.7 3.3 2.6 70 2.1 SW 15 19 8 10 1020.6 1020.6 0.0
26/03:00am 8.4 3.6 2.6 67 2.4 SW 17 20 9 11 1020.7 1020.7 0.0
26/02:30am 8.7 2.9 2.5 65 2.6 SSW 22 32 12 17 1020.7 1020.7 0.0
26/02:00am 8.2 3.8 2.9 69 2.2 SSW 15 22 8 12 1020.6 1020.6 0.0
26/01:30am 8.8 4.1 3.0 67 2.5 SSW 17 20 9 11 1020.5 1020.5 0.0
26/01:00am 9.0 4.3 3.0 66 2.6 SSW 17 22 9 12 1020.4 1020.4 0.0
26/12:30am 9.1 4.0 2.9 65 2.6 SSW 19 24 10 13 1020.2 1020.2 0.0
26/12:00am 9.4 5.0 2.9 64 2.8 SSW 15 20 8 11 1020.1 1020.1 0.0
 
Date/Time
EDT
Temp
°C
App
Temp
°C
Dew
Point
°C
Rel
Hum
%
Delta-T
°C
Wind Press
QNH
hPa
Press
MSL
hPa
Rain since
9am
mm
Dir  Spd
km/h
Gust
km/h
Spd
kts
Gust
kts
25/11:30pm 10.0 5.6 2.6 60 3.2 SSW 15 20 8 11 1019.9 1019.9 0.0
25/11:00pm 10.7 6.7 3.0 59 3.3 SSW 13 26 7 14 1019.9 1019.9 0.0
25/10:30pm 10.9 6.3 3.5 60 3.3 S 17 24 9 13 1019.7 1019.7 0.0
25/10:00pm 11.0 6.1 4.0 62 3.1 S 19 30 10 16 1019.6 1019.6 0.0
25/09:30pm 11.1 6.7 4.6 64 2.9 SSW 17 30 9 16 1019.0 1019.0 0.0
25/09:00pm 11.0 5.6 4.7 65 2.8 SSW 22 33 12 18 1018.2 1018.2 0.0
25/08:30pm 10.9 5.4 5.9 71 2.3 SSW 24 35 13 19 1017.8 1017.8 0.0
25/08:00pm 10.8 4.3 6.6 75 2.0 SSW 30 41 16 22 1017.2 1017.2 0.0
25/07:42pm 10.6 4.6 6.9 78 1.8 S 28 46 15 25 1016.9 1016.9 0.0
25/07:30pm 10.6 5.1 7.5 81 1.5 S 26 41 14 22 1016.9 1016.9 0.0
25/07:00pm 11.5 6.8 6.0 69 2.6 SSW 20 30 11 16 1016.2 1016.2 0.0
25/06:30pm 11.7 7.0 6.2 69 2.6 SSW 20 37 11 20 1015.9 1015.9 0.0
25/06:00pm 11.2 6.5 6.1 71 2.4 SSW 20 39 11 21 1015.3 1015.3 0.0
25/05:30pm 11.2 5.1 6.5 73 2.2 S 28 43 15 23 1015.0 1015.0 0.0
25/05:01pm 11.3 5.4 7.6 78 1.8 SSW 28 46 15 25 1014.7 1014.7 0.0
25/05:00pm 11.3 5.9 7.8 79 1.7 SSW 26 41 14 22 1014.7 1014.7 0.0
25/04:30pm 12.0 7.5 8.5 79 1.7 S 22 43 12 23 1014.6 1014.6 0.0
25/04:00pm 12.2 8.3 9.6 84 1.3 SSW 20 37 11 20 1014.3 1014.3 0.0
25/03:30pm 12.2 8.4 9.8 85 1.2 S 20 39 11 21 1014.1 1014.0 0.0
25/03:00pm 12.2 8.0 9.9 86 1.2 SSW 22 37 12 20 1013.7 1013.6 0.0
25/02:38pm 12.5 7.1 9.5 82 1.5 SSW 28 48 15 26 1013.5 1013.4 0.0
25/02:30pm 12.6 7.9 9.4 81 1.6 S 24 43 13 23 1013.5 1013.4 0.0
25/02:00pm 13.1 7.2 9.0 76 2.1 S 30 48 16 26 1013.0 1012.9 0.0
25/01:30pm 15.0 9.1 8.9 67 3.1 SSW 30 50 16 27 1012.3 1012.2 0.0
25/01:22pm 15.9 10.4 9.1 64 3.5 S 28 50 15 27 1012.3 1012.2 0.0
25/01:17pm 16.4 12.4 8.1 58 4.2 S 19 50 10 27 1012.2 1012.1 0.0
25/01:00pm 18.1 15.6 8.1 52 5.1 S 11 17 6 9 1012.2 1012.1 0.0
25/12:30pm 17.5 14.7 8.6 56 4.6 S 13 20 7 11 1012.3 1012.2 0.0
25/12:00pm 17.4 14.0 7.7 53 4.9 SSE 15 28 8 15 1012.3 1012.2 0.0
25/11:30am 17.7 15.9 8.0 53 5.0 E 7 13 4 7 1012.2 1012.1 0.0
25/11:00am 17.3 14.4 8.2 55 4.7 ESE 13 19 7 10 1012.1 1012.0 0.0
25/10:30am 18.0 14.8 8.6 54 4.9 ESE 15 19 8 10 1011.7 1011.6 0.0

Latest Capital City Observations: Canberra | Sydney | Melbourne | Brisbane | Adelaide | Perth | Hobart | Darwin

Other formats

Comma delimited format used in spreadsheet applications
http://www.bom.gov.au/fwo/IDT60901/IDT60901.94970.axf

JavaScript Object Notation format (JSON) in row-major order
http://www.bom.gov.au/fwo/IDT60901/IDT60901.94970.json

Data quality

Most of these data are generated automatically and are frequently updated. Quality checks on data are not normally performed. It is possible for incorrect values to appear. Refer to information at About Latest Weather Observations and please check the disclaimer before using these data.